createdAt,value
2022-11-08T00:01:29.800Z,0.00
2022-11-08T00:06:29.692Z,0.00
2022-11-08T00:11:29.638Z,0.00
2022-11-08T00:16:29.608Z,0.00
2022-11-08T00:21:29.555Z,0.00
2022-11-08T00:26:29.473Z,0.00
2022-11-08T05:00:36.167Z,0.00
2022-11-08T05:05:36.098Z,0.00
2022-11-08T05:10:36.038Z,0.00
2022-11-08T05:15:43.042Z,0.00
2022-11-08T05:20:35.931Z,0.00
2022-11-08T05:25:35.881Z,0.00
2022-11-08T05:30:35.825Z,0.00
2022-11-08T05:35:35.783Z,0.00
2022-11-08T05:40:35.721Z,0.00
2022-11-08T05:45:35.668Z,0.00
2022-11-08T05:50:35.610Z,0.00
2022-11-08T05:55:35.582Z,0.00
2022-11-08T06:00:35.508Z,0.00
2022-11-08T06:05:35.456Z,4.00
2022-11-08T06:10:35.398Z,8.00
2022-11-08T06:15:35.360Z,20.00
2022-11-08T06:20:35.294Z,48.00
2022-11-08T06:25:35.238Z,88.00
2022-11-08T06:30:35.187Z,164.00
2022-11-08T06:35:35.147Z,272.00
2022-11-08T06:40:35.073Z,424.00
2022-11-08T06:45:35.024Z,548.00
2022-11-08T06:50:34.968Z,724.00
2022-11-08T06:55:34.939Z,932.00
2022-11-08T07:00:34.861Z,980.00
2022-11-08T07:05:34.803Z,1228.00
2022-11-08T07:10:34.761Z,1552.00
2022-11-08T07:15:34.716Z,1780.00
2022-11-08T07:20:34.651Z,1892.00
2022-11-08T07:25:34.598Z,2372.00
2022-11-08T07:30:34.539Z,2852.00
2022-11-08T07:35:34.666Z,3004.00
2022-11-08T07:40:34.430Z,2992.00
2022-11-08T07:45:34.377Z,3020.00
2022-11-08T07:50:34.318Z,3212.00
2022-11-08T07:55:34.288Z,3344.00
2022-11-08T08:00:34.221Z,3364.00
2022-11-08T08:05:34.163Z,3492.00
2022-11-08T08:10:34.100Z,3896.00
2022-11-08T08:15:34.066Z,4472.00
2022-11-08T08:20:33.992Z,4860.00
2022-11-08T08:25:33.946Z,4916.00
2022-11-08T08:30:33.868Z,5200.00
2022-11-08T08:35:33.897Z,5368.00
2022-11-08T08:40:33.771Z,5472.00
2022-11-08T08:45:33.716Z,5116.00
2022-11-08T08:50:33.661Z,4964.00
2022-11-08T08:55:33.719Z,5212.00
2022-11-08T09:05:34.496Z,4368.00
2022-11-08T09:10:33.438Z,4212.00
2022-11-08T09:15:33.417Z,4264.00
2022-11-08T09:20:33.316Z,4204.00
2022-11-08T09:25:33.273Z,4268.00
2022-11-08T09:30:33.245Z,4280.00
2022-11-08T09:35:33.193Z,4248.00
2022-11-08T09:40:33.111Z,4128.00
2022-11-08T09:45:33.074Z,3936.00
2022-11-08T09:50:32.997Z,3668.00
2022-11-08T09:55:32.955Z,3600.00
2022-11-08T10:00:32.898Z,3556.00
2022-11-08T10:05:32.817Z,3628.00
2022-11-08T10:10:32.803Z,3824.00
2022-11-08T10:15:32.755Z,3784.00
2022-11-08T10:20:32.661Z,3724.00
2022-11-08T10:25:32.618Z,3768.00
2022-11-08T10:30:32.548Z,3940.00
2022-11-08T10:35:32.635Z,4028.00
2022-11-08T10:40:32.443Z,4108.00
2022-11-08T10:45:32.382Z,4148.00
2022-11-08T10:50:32.326Z,4112.00
2022-11-08T10:55:32.289Z,4064.00
2022-11-08T11:00:32.223Z,4044.00
2022-11-08T11:05:32.161Z,4216.00
2022-11-08T11:10:32.107Z,4504.00
2022-11-08T11:15:39.114Z,4516.00
2022-11-08T11:20:32.171Z,4880.00
2022-11-08T11:25:31.943Z,4980.00
2022-11-08T11:30:31.886Z,5172.00
2022-11-08T11:35:31.851Z,4800.00
2022-11-08T11:40:31.778Z,5104.00
2022-11-08T11:45:31.720Z,5160.00
2022-11-08T11:50:31.668Z,4660.00
2022-11-08T11:55:31.640Z,4576.00
2022-11-08T12:00:31.566Z,4500.00
2022-11-08T12:05:31.561Z,6228.00
2022-11-08T12:10:31.449Z,3984.00
2022-11-08T12:15:31.414Z,3888.00
2022-11-08T12:20:31.336Z,4548.00
2022-11-08T12:25:31.285Z,4116.00
2022-11-08T12:30:31.229Z,3780.00
2022-11-08T12:35:31.194Z,3508.00
2022-11-08T12:40:31.122Z,3224.00
2022-11-08T12:45:31.067Z,3312.00
2022-11-08T12:50:31.017Z,3052.00
2022-11-08T12:55:31.026Z,2968.00
2022-11-08T13:00:30.901Z,3496.00
2022-11-08T13:05:30.846Z,3156.00
2022-11-08T13:10:30.792Z,3060.00
2022-11-08T13:15:30.757Z,3024.00
2022-11-08T13:20:30.684Z,2740.00
2022-11-08T13:25:30.630Z,3004.00
2022-11-08T13:30:30.572Z,2960.00
2022-11-08T13:35:30.649Z,3588.00
2022-11-08T13:40:30.465Z,3768.00
2022-11-08T13:45:30.411Z,3056.00
2022-11-08T13:50:30.355Z,2744.00
2022-11-08T13:55:30.316Z,2596.00
2022-11-08T14:00:30.247Z,2504.00
2022-11-08T14:05:30.194Z,2344.00
2022-11-08T14:10:30.138Z,1684.00
2022-11-08T14:15:30.118Z,1680.00
2022-11-08T14:20:30.024Z,1884.00
2022-11-08T14:25:29.968Z,2072.00
2022-11-08T14:30:29.913Z,1772.00
2022-11-08T14:35:29.878Z,1500.00
2022-11-08T14:40:29.830Z,1220.00
2022-11-08T14:45:29.746Z,1100.00
2022-11-08T14:50:29.696Z,916.00
2022-11-08T14:55:29.768Z,932.00
2022-11-08T15:00:29.590Z,712.00
2022-11-08T15:05:29.528Z,692.00
2022-11-08T15:10:29.475Z,668.00
2022-11-08T15:15:29.437Z,588.00
2022-11-08T15:20:29.361Z,456.00
2022-11-08T15:25:29.310Z,368.00
2022-11-08T15:30:29.251Z,304.00
2022-11-08T15:35:29.239Z,216.00
2022-11-08T15:40:29.144Z,156.00
2022-11-08T15:45:29.156Z,108.00
2022-11-08T15:50:29.032Z,72.00
2022-11-08T15:55:29.077Z,52.00
2022-11-08T16:00:28.918Z,32.00
2022-11-08T16:05:28.869Z,20.00
2022-11-08T16:10:28.809Z,12.00
2022-11-08T16:15:28.769Z,4.00
2022-11-08T16:20:28.691Z,0.00
2022-11-08T16:25:28.643Z,0.00
2022-11-08T16:30:28.571Z,0.00
2022-11-08T16:35:28.542Z,0.00
2022-11-08T16:40:28.472Z,0.00
2022-11-08T16:45:58.381Z,0.00
2022-11-08T16:50:29.369Z,0.00
2022-11-08T16:55:28.350Z,0.00
2022-11-08T17:00:28.268Z,0.00
2022-11-08T17:05:28.192Z,0.00
2022-11-08T17:10:28.133Z,0.00
2022-11-08T17:15:35.134Z,0.00
2022-11-08T17:20:28.024Z,0.00
2022-11-08T17:25:27.981Z,0.00
2022-11-08T17:30:27.907Z,0.00
2022-11-08T17:35:27.880Z,0.00
2022-11-08T17:40:27.803Z,0.00
2022-11-08T17:45:27.749Z,0.00
2022-11-08T17:50:27.702Z,0.00
2022-11-08T17:55:27.657Z,0.00
2022-11-08T18:00:27.636Z,0.00
2022-11-08T18:05:27.714Z,0.00
2022-11-08T18:10:27.467Z,0.00
2022-11-08T18:15:27.430Z,0.00
2022-11-08T18:20:27.360Z,0.00
2022-11-08T18:25:27.308Z,0.00
2022-11-08T18:30:27.233Z,0.00
2022-11-08T18:35:27.217Z,0.00
2022-11-08T18:40:27.142Z,0.00
2022-11-08T18:45:27.078Z,0.00
2022-11-08T18:50:27.026Z,0.00
2022-11-08T18:55:26.986Z,0.00
2022-11-08T19:00:26.916Z,0.00
2022-11-08T19:05:26.858Z,0.00
2022-11-08T19:10:26.810Z,0.00
2022-11-08T19:15:26.777Z,0.00
2022-11-08T19:20:26.694Z,0.00
2022-11-08T19:25:26.634Z,0.00
2022-11-08T19:30:26.589Z,0.00
2022-11-08T19:35:26.565Z,0.00
2022-11-08T19:40:31.766Z,0.00
2022-11-08T19:45:26.420Z,0.00
2022-11-08T19:50:26.349Z,0.00
2022-11-08T19:55:26.324Z,0.00
2022-11-08T20:00:26.252Z,0.00
2022-11-08T20:05:26.194Z,0.00
2022-11-08T20:10:26.141Z,0.00
2022-11-08T20:15:26.115Z,0.00
2022-11-08T20:20:26.028Z,0.00
2022-11-08T20:25:25.982Z,0.00
2022-11-08T20:30:25.919Z,0.00
2022-11-08T20:35:25.892Z,0.00
2022-11-08T20:40:25.807Z,0.00
2022-11-08T20:45:25.755Z,0.00
2022-11-08T20:50:25.690Z,0.00
2022-11-08T20:55:25.661Z,0.00
2022-11-08T21:00:52.027Z,0.00
2022-11-08T21:05:26.548Z,0.00
2022-11-08T21:10:42.065Z,0.00
2022-11-08T21:15:27.243Z,0.00
2022-11-08T21:20:25.349Z,0.00
2022-11-08T21:25:25.303Z,0.00
2022-11-08T21:30:25.249Z,0.00
2022-11-08T21:35:25.210Z,0.00
2022-11-08T21:40:25.138Z,0.00
2022-11-08T21:45:25.083Z,0.00
2022-11-08T21:50:25.025Z,0.00
2022-11-08T21:55:24.999Z,0.00
2022-11-08T22:00:24.901Z,0.00
2022-11-08T22:05:24.865Z,0.00
2022-11-08T22:10:24.808Z,0.00
2022-11-08T22:15:24.765Z,0.00
2022-11-08T22:20:24.693Z,0.00
2022-11-08T22:25:24.642Z,0.00
2022-11-08T22:30:24.584Z,0.00
2022-11-08T22:35:24.552Z,0.00
2022-11-08T22:40:24.485Z,0.00
2022-11-08T22:45:24.405Z,0.00
2022-11-08T22:50:24.359Z,0.00
2022-11-08T22:55:24.325Z,0.00
2022-11-08T23:00:24.254Z,0.00
2022-11-08T23:05:24.224Z,0.00
2022-11-08T23:10:24.139Z,0.00
2022-11-08T23:15:24.101Z,0.00
2022-11-08T23:20:24.031Z,0.00
2022-11-08T23:25:23.969Z,0.00
2022-11-08T23:30:23.922Z,0.00
2022-11-08T23:35:23.883Z,0.00
2022-11-08T23:40:23.939Z,0.00
2022-11-08T23:45:23.752Z,0.00
2022-11-08T23:50:23.699Z,0.00
2022-11-08T23:55:23.769Z,0.00
